AirNav   Air Wisconsin Up To $57,000 Bonus
 
 1692 users online  

63WA Boyle R & D Airport
Colbert, Washington, USA

GOING TO COLBERT?


FAA INFORMATION EFFECTIVE 04 NOVEMBER 2021

Location

FAA Identifier: 63WA
Lat/Long: 47-50-00.0000N 117-16-25.0000W
47-50.000000N 117-16.416667W
47.8333333,-117.2736111
(estimated)
Elevation: 2350 ft. / 716 m (estimated)
Variation: 18E (1995)
From city: 4 miles E of COLBERT, WA
Time zone: UTC -7 (UTC -8 during Standard Time)
Zip code: 99005

Airport Operations

Airport use: Private use. Permission required prior to landing
Activation date: 02/1998
Control tower: no
ARTCC: SEATTLE CENTER
FSS: SEATTLE FLIGHT SERVICE STATION
Attendance: CONTINUOUS
Segmented circle: no

Airport Communications

WX ASOS at SFF (9 nm S): 120.55 (509-535-3290)
WX ASOS at DEW (10 nm NW): 135.175 (509-276-2303)
WX ASOS at GEG (17 nm SW): PHONE 509-742-2544
WX AWOS-3PT at COE (19 nm E): 135.075 (208-772-8215)

Nearby radio navigation aids

VOR radial/distance  VOR name  Freq  Var
COEr262/18.6COEUR D'ALENE VOR/DME108.8019E
GEGr021/21.5SPOKANE VORTAC115.5021E

 
NDB name  Hdg/Dist  Freq  Var  ID
DEER PARK127/10.136516EDPY -.. .--. -.--
SANDPOE212/39.626414ESZT ... --.. -

Airport Services

Runway Information

Runway 18/36

Dimensions: 1600 x 200 ft. / 488 x 61 m
Surface: dirt
RUNWAY 18  RUNWAY 36
Traffic pattern: leftleft

Airport Ownership and Management from official FAA records

Ownership: Privately-owned
Owner: VICTOR & ARLENE BOYLE
E 9709 GREEN BLUFF ROAD
COLBERT, WA 99005
Phone 509-238-2470
Manager: VICTOR BOYLE
E 9709 GREEN BLUFF ROAD
COLBERT, WA 99005
Phone 509-238-2470

Airport Operational Statistics

Aircraft based on the field: 1
Single engine airplanes: 1
    

Additional Remarks

FOR CD CTC SPOKANE APCH AT 509-742-2522

Instrument Procedures

There are no published instrument procedures at 63WA.

Some nearby airports with instrument procedures:

KSFF - Felts Field Airport (9 nm S)
KDEW - Deer Park Airport (10 nm NW)
KGEG - Spokane International Airport (17 nm SW)
KCOE - Coeur d'Alene Airport - Pappy Boyington Field (19 nm E)
KSKA - Fairchild Air Force Base (20 nm SW)
 
Loc | Ops | Rwys | IFR | FBO | Links
Com | Nav | Svcs | Stats | Notes
Area around 63WA (Boyle R & D Airport)
 
Road maps at: MapQuest Bing Google
 
Aerial photo
No photo
 
Sectional chart

 
Airport distance calculator
Flying to Boyle R & D Airport? Find the distance to fly.

From to 63WA

Sunrise and sunset
Times for 30-Nov-2021
 Local
(UTC-8)
 Zulu
(UTC)
Morning civil twilight06:4214:42
Sunrise07:1715:17
Sunset15:5923:59
Evening civil twilight16:3400:34

Current date and time
Zulu (UTC)  30-Nov-2021 19:06:41
Local (UTC-8)  30-Nov-2021 11:06:41
 
METAR
KSFF 
9nm S 
301853Z 22006KT 10SM BKN070 OVC095 10/05 A3010 RMK AO2 SLP195 T01000050
KDEW 
10nm NW 
301853Z AUTO 14004KT 10SM BKN021 OVC095 08/04 A3011 RMK AO2 SLP203 T00830044
KGEG 
17nm SW 
301853Z 20013G21KT 10SM FEW030 SCT065 OVC090 08/06 A3009 RMK AO2 SLP195 T00830056
KCOE 
19nm E 
301856Z AUTO 17010KT 10SM -RA OVC028 08/05 A3012 RMK AO2 RAB11 SLP225 P0001 T00780050
KSKA 
20nm SW 
301858Z 17009KT 10SM FEW013 BKN060 BKN090 OVC110 08/08 A3008 RMK AO2A SLP198 T00780077 $
TAF
KSFF 
9nm S 
301738Z 3018/0118 22010G17KT P6SM FEW035 OVC080 FM302300 22010KT P6SM VCSH OVC050 FM010500 22010G20KT P6SM SCT030 OVC050
KGEG 
17nm SW 
301738Z 3018/0118 20015G21KT P6SM SCT030 OVC080 FM010000 20012G18KT P6SM VCSH FEW020 OVC050 FM010500 20017G26KT P6SM SCT025 BKN060
KCOE 
19nm E 
301830Z 3019/0118 18011KT P6SM -SHRA OVC030 FM302100 20010KT P6SM -SHRA OVC025 FM010600 19009KT P6SM VCSH OVC050 WS020/22036KT
KSKA 
20nm SW 
301100Z 3011/0117 17010KT 9999 BKN100 QNH3007INS BECMG 3015/3016 20012G20KT 9999 BKN040 620557 QNH3007INS WND 20015G25KT AFT 3021 TEMPO 3020/3024 VCSH OVC030 BECMG 0100/0101 20012G22KT 9999 SCT010 BKN040 620805 QNH3010INS BECMG 0112/0113 21012G20KT 9999 BKN060 620904 QNH3008INS TX11/3022Z TN06/3011Z
NOTAMs
Click for the latest NOTAMs
NOTAMs are issued by the DoD/FAA and will open in a separate window not controlled by AirNav.

 

 
 

Would you like to see your business listed on this page?

 If your business provides an interesting product or service to pilots, flight crews, aircraft, or users of the Boyle R & D Airport, you should consider listing it here.  To start the listing process, click on the button below
 
Add a business
 

Other Pages about Boyle R & D Airport

Update a link
 
Copyright © AirNav, LLC. All rights reserved. Privacy Policy  Contact